Observation data for Wolfforth on 10/17/2019      Previous  Date       Current Mesonet Observations  Soil Data  Daily Summary Page  Observations in Plain Language
KWOS 170500Z 19008KT 11/M01 A3013 RMK A01 T01131013  RH  042%=      5-min Rain = 0
KWOS 170505Z 20008KT 11/M01 A3013 RMK A01 T01131013  RH  042%=      5-min Rain = 0
KWOS 170510Z 20008KT 11/M01 A3013 RMK A01 T01111012  RH  043%=      5-min Rain = 0
KWOS 170515Z 19007KT 11/M01 A3013 RMK A01 T01091012  RH  043%=      5-min Rain = 0
KWOS 170520Z 19007KT 11/M01 A3013 RMK A01 T01071012  RH  044%=      5-min Rain = 0
KWOS 170525Z 19007KT 11/M01 A3012 RMK A01 T01061012  RH  044%=      5-min Rain = 0
KWOS 170530Z 19007KT 10/M01 A3012 RMK A01 T01031011  RH  045%=      5-min Rain = 0
KWOS 170535Z 19007KT 10/M01 A3012 RMK A01 T01001011  RH  046%=      5-min Rain = 0
KWOS 170540Z 19008KT 10/M01 A3012 RMK A01 T01011011  RH  046%=      5-min Rain = 0
KWOS 170545Z 19008KT 10/M01 A3012 RMK A01 T00991011  RH  047%=      5-min Rain = 0
KWOS 170550Z 19007KT 10/M01 A3012 RMK A01 T00971011  RH  047%=      5-min Rain = 0
KWOS 170555Z 20007KT 10/M01 A3012 RMK A01 T00971011  RH  048%=      5-min Rain = 0
KWOS 170600Z 20007KT 10/M01 A3012 RMK A01 T00961011  RH  048%=      5-min Rain = 0
KWOS 170605Z 20007KT 10/M01 A3012 RMK A01 T00961011  RH  048%=      5-min Rain = 0
KWOS 170610Z 21006KT 09/M01 A3012 RMK A01 T00941011  RH  048%=      5-min Rain = 0
KWOS 170615Z 21006KT 09/M01 A3012 RMK A01 T00931011  RH  049%=      5-min Rain = 0
KWOS 170620Z 22005KT 09/M01 A3012 RMK A01 T00911011  RH  049%=      5-min Rain = 0
KWOS 170625Z 22005KT 09/M01 A3012 RMK A01 T00881012  RH  050%=      5-min Rain = 0
KWOS 170630Z 24005KT 09/M01 A3011 RMK A01 T00851012  RH  051%=      5-min Rain = 0
KWOS 170635Z 23005KT 08/M01 A3011 RMK A01 T00811013  RH  052%=      5-min Rain = 0
KWOS 170640Z 22005KT 08/M01 A3011 RMK A01 T00781013  RH  053%=      5-min Rain = 0
KWOS 170645Z 22005KT 08/M01 A3011 RMK A01 T00751012  RH  054%=      5-min Rain = 0
KWOS 170650Z 23005KT 07/M01 A3011 RMK A01 T00731012  RH  056%=      5-min Rain = 0
KWOS 170655Z 23005KT 07/M01 A3011 RMK A01 T00701012  RH  056%=      5-min Rain = 0
KWOS 170700Z 24006KT 07/M01 A3011 RMK A01 T00691011  RH  057%=      5-min Rain = 0
KWOS 170705Z 23006KT 08/M01 A3011 RMK A01 T00751009  RH  056%=      5-min Rain = 0
KWOS 170710Z 23006KT 08/M01 A3011 RMK A01 T00781009  RH  055%=      5-min Rain = 0
KWOS 170715Z 24005KT 08/M01 A3011 RMK A01 T00791009  RH  054%=      5-min Rain = 0
KWOS 170720Z 24006KT 08/M01 A3011 RMK A01 T00761009  RH  055%=      5-min Rain = 0
KWOS 170725Z 25006KT 08/M01 A3011 RMK A01 T00751009  RH  056%=      5-min Rain = 0
KWOS 170730Z 26006KT 07/M01 A3011 RMK A01 T00731010  RH  056%=      5-min Rain = 0
KWOS 170735Z 27004KT 07/M01 A3012 RMK A01 T00711011  RH  057%=      5-min Rain = 0
KWOS 170740Z 27004KT 07/M01 A3012 RMK A01 T00661012  RH  058%=      5-min Rain = 0
KWOS 170745Z 27005KT 06/M01 A3011 RMK A01 T00631013  RH  059%=      5-min Rain = 0
KWOS 170750Z 26005KT 06/M01 A3011 RMK A01 T00611013  RH  060%=      5-min Rain = 0
KWOS 170755Z 26006KT 06/M01 A3011 RMK A01 T00631012  RH  059%=      5-min Rain = 0
KWOS 170800Z 26006KT 07/M01 A3011 RMK A01 T00651013  RH  058%=      5-min Rain = 0
KWOS 170805Z 25005KT 07/M01 A3011 RMK A01 T00661012  RH  058%=      5-min Rain = 0
KWOS 170810Z 26005KT 07/M01 A3011 RMK A01 T00661013  RH  058%=      5-min Rain = 0
KWOS 170815Z 26005KT 06/M01 A301 RMK A01 T00641013  RH  058%=      5-min Rain = 0
KWOS 170820Z 26005KT 06/M01 A301 RMK A01 T00621014  RH  059%=      5-min Rain = 0
KWOS 170825Z 25005KT 06/M01 A301 RMK A01 T00591014  RH  060%=      5-min Rain = 0
KWOS 170830Z 26005KT 06/M01 A301 RMK A01 T00601014  RH  060%=      5-min Rain = 0
KWOS 170835Z 26005KT 06/M01 A301 RMK A01 T00611014  RH  059%=      5-min Rain = 0
KWOS 170840Z 25005KT 06/M01 A301 RMK A01 T00621014  RH  059%=      5-min Rain = 0
KWOS 170845Z 25006KT 06/M01 A3009 RMK A01 T00641013  RH  058%=      5-min Rain = 0
KWOS 170850Z 25007KT 07/M01 A3009 RMK A01 T00671013  RH  057%=      5-min Rain = 0
KWOS 170855Z 25006KT 07/M01 A3009 RMK A01 T00691013  RH  056%=      5-min Rain = 0
KWOS 170900Z 26006KT 07/M01 A3009 RMK A01 T00671013  RH  057%=      5-min Rain = 0
KWOS 170905Z 26005KT 06/M02 A3009 RMK A01 T00611015  RH  059%=      5-min Rain = 0
KWOS 170910Z 25005KT 06/M01 A3009 RMK A01 T00601013  RH  060%=      5-min Rain = 0
KWOS 170915Z 26006KT 06/M01 A3008 RMK A01 T00581013  RH  061%=      5-min Rain = 0
KWOS 170920Z 25006KT 06/M01 A3008 RMK A01 T00581013  RH  061%=      5-min Rain = 0
KWOS 170925Z 26006KT 06/M01 A3008 RMK A01 T00611012  RH  060%=      5-min Rain = 0
KWOS 170930Z 25005KT 06/M01 A3008 RMK A01 T00641011  RH  059%=      5-min Rain = 0
KWOS 170935Z 25005KT 06/M01 A3007 RMK A01 T00641012  RH  059%=      5-min Rain = 0
KWOS 170940Z 26005KT 06/M01 A3007 RMK A01 T00621012  RH  060%=      5-min Rain = 0
KWOS 170945Z 26006KT 06/M01 A3007 RMK A01 T00621012  RH  060%=      5-min Rain = 0
KWOS 170950Z 26006KT 07/M01 A3007 RMK A01 T00651011  RH  059%=      5-min Rain = 0
KWOS 170955Z 26006KT 06/M01 A3007 RMK A01 T00641012  RH  059%=      5-min Rain = 0
KWOS 171000Z 26005KT 06/M01 A3007 RMK A01 T00621012  RH  060%=      5-min Rain = 0
KWOS 171005Z 26006KT 06/M01 A3007 RMK A01 T00601012  RH  061%=      5-min Rain = 0
KWOS 171010Z 26005KT 06/M01 A3007 RMK A01 T00601012  RH  061%=      5-min Rain = 0
KWOS 171015Z 26005KT 06/M01 A3007 RMK A01 T00581012  RH  061%=      5-min Rain = 0
KWOS 171020Z 26005KT 06/M01 A3007 RMK A01 T00571012  RH  062%=      5-min Rain = 0
KWOS 171025Z 25005KT 06/M01 A3008 RMK A01 T00551013  RH  062%=      5-min Rain = 0
KWOS 171030Z 26005KT 06/M01 A3008 RMK A01 T00551012  RH  063%=      5-min Rain = 0
KWOS 171035Z 26005KT 05/M01 A3008 RMK A01 T00541012  RH  063%=      5-min Rain = 0
KWOS 171040Z 25004KT 05/M01 A3008 RMK A01 T00531012  RH  064%=      5-min Rain = 0
KWOS 171045Z 24004KT 05/M01 A3007 RMK A01 T00501012  RH  065%=      5-min Rain = 0
KWOS 171050Z 24005KT 05/M01 A3007 RMK A01 T00471013  RH  066%=      5-min Rain = 0
KWOS 171055Z 23005KT 05/M01 A3007 RMK A01 T00461012  RH  066%=      5-min Rain = 0
KWOS 171100Z 22006KT 05/M01 A3007 RMK A01 T00501011  RH  065%=      5-min Rain = 0
KWOS 171105Z 22006KT 05/M01 A3007 RMK A01 T00531010  RH  064%=      5-min Rain = 0
KWOS 171110Z 23006KT 05/M01 A3007 RMK A01 T00501013  RH  064%=      5-min Rain = 0
KWOS 171115Z 23006KT 04/M01 A3007 RMK A01 T00441013  RH  067%=      5-min Rain = 0
KWOS 171120Z 22006KT 04/M01 A3007 RMK A01 T00431012  RH  068%=      5-min Rain = 0
KWOS 171125Z 22006KT 05/M01 A3007 RMK A01 T00451011  RH  068%=      5-min Rain = 0
KWOS 171130Z 21006KT 05/M01 A3006 RMK A01 T00481010  RH  067%=      5-min Rain = 0
KWOS 171135Z 22006KT 05/M01 A3006 RMK A01 T00471011  RH  066%=      5-min Rain = 0
KWOS 171140Z 23006KT 04/M01 A3006 RMK A01 T00431012  RH  068%=      5-min Rain = 0
KWOS 171145Z 23006KT 04/M01 A3006 RMK A01 T00411012  RH  069%=      5-min Rain = 0
KWOS 171150Z 23006KT 04/M01 A3006 RMK A01 T00411011  RH  070%=      5-min Rain = 0
KWOS 171155Z 22006KT 04/M01 A3006 RMK A01 T00421011  RH  069%=      5-min Rain = 0
KWOS 171200Z 23006KT 05/M01 A3006 RMK A01 T00451010  RH  068%=      5-min Rain = 0
KWOS 171205Z 24007KT 04/M01 A3006 RMK A01 T00441010  RH  068%=      5-min Rain = 0
KWOS 171210Z 23006KT 05/M01 A3006 RMK A01 T00451010  RH  068%=      5-min Rain = 0
KWOS 171215Z 23006KT 04/M01 A3006 RMK A01 T00441010  RH  068%=      5-min Rain = 0
KWOS 171220Z 24006KT 04/M01 A3006 RMK A01 T00431010  RH  069%=      5-min Rain = 0
KWOS 171225Z 25006KT 05/M01 A3006 RMK A01 T00451009  RH  069%=      5-min Rain = 0
KWOS 171230Z 25005KT 04/M01 A3006 RMK A01 T00441009  RH  069%=      5-min Rain = 0
KWOS 171235Z 24004KT 04/M01 A3006 RMK A01 T00441008  RH  069%=      5-min Rain = 0
KWOS 171240Z 24004KT 04/M01 A3006 RMK A01 T00441008  RH  070%=      5-min Rain = 0
KWOS 171245Z 25004KT 04/M01 A3006 RMK A01 T00431008  RH  070%=      5-min Rain = 0
KWOS 171250Z 26005KT 04/M01 A3006 RMK A01 T00411009  RH  071%=      5-min Rain = 0
KWOS 171255Z 24004KT 04/M01 A3006 RMK A01 T00391008  RH  072%=      5-min Rain = 0
KWOS 171300Z 25005KT 04/M01 A3006 RMK A01 T00401007  RH  072%=      5-min Rain = 0
KWOS 171305Z 25004KT 04/M01 A3006 RMK A01 T00391008  RH  072%=      5-min Rain = 0
KWOS 171310Z 24004KT 04/M01 A3006 RMK A01 T00391007  RH  073%=      5-min Rain = 0
KWOS 171315Z 23005KT 04/M01 A3006 RMK A01 T00411006  RH  073%=      5-min Rain = 0
KWOS 171320Z 22005KT 05/M00 A3006 RMK A01 T00451003  RH  072%=      5-min Rain = 0
KWOS 171325Z 22005KT 05/M00 A3006 RMK A01 T00491002  RH  070%=      5-min Rain = 0
KWOS 171330Z 22005KT 05/00 A3006 RMK A01 T005000-0  RH  071%=      5-min Rain = 0
KWOS 171335Z 22004KT 05/00 A3006 RMK A01 T00540002  RH  070%=      5-min Rain = 0
KWOS 171340Z 23004KT 06/00 A3006 RMK A01 T00570002  RH  068%=      5-min Rain = 0
KWOS 171345Z 25005KT 06/00 A3006 RMK A01 T00620004  RH  067%=      5-min Rain = 0
KWOS 171350Z 26004KT 07/01 A3007 RMK A01 T00680006  RH  065%=      5-min Rain = 0
KWOS 171355Z 26005KT 08/01 A3007 RMK A01 T00750010  RH  064%=      5-min Rain = 0
KWOS 171400Z 26006KT 08/01 A3007 RMK A01 T00830013  RH  062%=      5-min Rain = 0
KWOS 171405Z 24005KT 09/02 A3007 RMK A01 T00900016  RH  061%=      5-min Rain = 0
KWOS 171410Z 24006KT 10/02 A3007 RMK A01 T00950017  RH  059%=      5-min Rain = 0
KWOS 171415Z 25007KT 10/02 A3007 RMK A01 T01020020  RH  058%=      5-min Rain = 0
KWOS 171420Z 25007KT 11/02 A3007 RMK A01 T01090021  RH  056%=      5-min Rain = 0
KWOS 171425Z 25008KT 12/02 A3007 RMK A01 T01150022  RH  054%=      5-min Rain = 0
KWOS 171430Z 25010KT 12/02 A3007 RMK A01 T01200021  RH  052%=      5-min Rain = 0
KWOS 171435Z 25011KT 12/02 A3007 RMK A01 T01230021  RH  051%=      5-min Rain = 0
KWOS 171440Z 24011KT 13/02 A3007 RMK A01 T01280023  RH  050%=      5-min Rain = 0
KWOS 171445Z 24010KT 13/02 A3007 RMK A01 T01330023  RH  048%=      5-min Rain = 0
KWOS 171450Z 23011KT 14/02 A3007 RMK A01 T01370022  RH  046%=      5-min Rain = 0
KWOS 171455Z 24011KT 14/02 A3008 RMK A01 T01420022  RH  045%=      5-min Rain = 0
KWOS 171500Z 23010KT 15/02 A3007 RMK A01 T01470022  RH  044%=      5-min Rain = 0
KWOS 171505Z 23011KT 15/02 A3007 RMK A01 T01520022  RH  042%=      5-min Rain = 0
KWOS 171510Z 24010KT 16/02 A3007 RMK A01 T01550022  RH  041%=      5-min Rain = 0
KWOS 171515Z 24011KT 16/02 A3007 RMK A01 T01590022  RH  040%=      5-min Rain = 0
KWOS 171520Z 23010KT 16/02 A3007 RMK A01 T01620023  RH  040%=      5-min Rain = 0
KWOS 171525Z 23010KT 17/02 A3007 RMK A01 T01650024  RH  039%=      5-min Rain = 0
KWOS 171530Z 23012KT 17/02 A3006 RMK A01 T01660023  RH  039%=      5-min Rain = 0
KWOS 171535Z 23010KT 17/02 A3006 RMK A01 T01680024  RH  039%=      5-min Rain = 0
KWOS 171540Z 22011G16KT 17/02 A3006 RMK A01 T01730024  RH  037%=      5-min Rain = 0
KWOS 171545Z 22010KT 18/02 A3006 RMK A01 T01770024  RH  036%=      5-min Rain = 0
KWOS 171550Z 24010KT 18/03 A3006 RMK A01 T01800025  RH  036%=      5-min Rain = 0
KWOS 171555Z 23010KT 18/02 A3006 RMK A01 T01830024  RH  035%=      5-min Rain = 0
KWOS 171600Z 24010KT 19/02 A3006 RMK A01 T01850022  RH  034%=      5-min Rain = 0
KWOS 171605Z 23013KT 19/02 A3006 RMK A01 T01860019  RH  033%=      5-min Rain = 0
KWOS 171610Z 23011KT 19/02 A3005 RMK A01 T01900019  RH  033%=      5-min Rain = 0
KWOS 171615Z 22010KT 19/02 A3005 RMK A01 T01930021  RH  032%=      5-min Rain = 0
KWOS 171620Z 21013KT 19/02 A3005 RMK A01 T01930020  RH  032%=      5-min Rain = 0
KWOS 171625Z 22011KT 19/02 A3005 RMK A01 T01930023  RH  033%=      5-min Rain = 0
KWOS 171630Z 21011G16KT 20/03 A3005 RMK A01 T01980027  RH  033%=      5-min Rain = 0
KWOS 171635Z 23011KT 20/03 A3005 RMK A01 T01990029  RH  033%=      5-min Rain = 0
KWOS 171640Z 22010KT 20/03 A3004 RMK A01 T02010028  RH  032%=      5-min Rain = 0
KWOS 171645Z 21013KT 21/03 A3004 RMK A01 T02050030  RH  032%=      5-min Rain = 0
KWOS 171650Z 21013KT 20/03 A3003 RMK A01 T02040030  RH  032%=      5-min Rain = 0
KWOS 171655Z 21011G17KT 21/03 A3004 RMK A01 T02070031  RH  032%=      5-min Rain = 0
KWOS 171700Z 22012KT 21/03 A3004 RMK A01 T02100033  RH  032%=      5-min Rain = 0
KWOS 171705Z 22011KT 21/03 A3003 RMK A01 T02110033  RH  032%=      5-min Rain = 0
KWOS 171710Z 22010G15KT 21/03 A3003 RMK A01 T02120034  RH  032%=      5-min Rain = 0
KWOS 171715Z 22011G17KT 21/03 A3003 RMK A01 T02140033  RH  031%=      5-min Rain = 0
KWOS 171720Z 22011G16KT 22/03 A3003 RMK A01 T02180033  RH  030%=      5-min Rain = 0
KWOS 171725Z 21011G17KT 22/03 A3003 RMK A01 T02190032  RH  030%=      5-min Rain = 0
KWOS 171730Z 21011KT 22/03 A3003 RMK A01 T02210031  RH  029%=      5-min Rain = 0
KWOS 171735Z 20010KT 22/03 A3002 RMK A01 T02240032  RH  029%=      5-min Rain = 0
KWOS 171740Z 21011KT 23/03 A3002 RMK A01 T02260029  RH  028%=      5-min Rain = 0
KWOS 171745Z 21012KT 23/03 A3002 RMK A01 T02250029  RH  028%=      5-min Rain = 0
KWOS 171750Z 21010G15KT 23/03 A3002 RMK A01 T02290029  RH  028%=      5-min Rain = 0
KWOS 171755Z 22011KT 23/03 A3001 RMK A01 T02290027  RH  027%=      5-min Rain = 0
KWOS 171800Z 20009G14KT 23/03 A3001 RMK A01 T02280029  RH  028%=      5-min Rain = 0
KWOS 171805Z 22012G18KT 23/03 A3001 RMK A01 T02310027  RH  027%=      5-min Rain = 0
KWOS 171810Z 21012G17KT 23/03 A3001 RMK A01 T02320028  RH  027%=      5-min Rain = 0
KWOS 171815Z 22010KT 23/03 A30 RMK A01 T02320026  RH  026%=      5-min Rain = 0
KWOS 171820Z 21011G16KT 23/03 A30 RMK A01 T02340031  RH  027%=      5-min Rain = 0
KWOS 171825Z 20010G16KT 24/03 A30 RMK A01 T02380034  RH  027%=      5-min Rain = 0
KWOS 171830Z 21011G17KT 24/03 A2999 RMK A01 T02380032  RH  027%=      5-min Rain = 0
KWOS 171835Z 20011G16KT 24/04 A2999 RMK A01 T02420036  RH  027%=      5-min Rain = 0
KWOS 171840Z 20011G18KT 24/04 A2999 RMK A01 T02420038  RH  027%=      5-min Rain = 0
KWOS 171845Z 21010G15KT 24/03 A2999 RMK A01 T02390033  RH  027%=      5-min Rain = 0
KWOS 171850Z 22010G17KT 24/04 A2998 RMK A01 T02390035  RH  027%=      5-min Rain = 0
KWOS 171855Z 23011KT 24/04 A2998 RMK A01 T02430036  RH  026%=      5-min Rain = 0
KWOS 171900Z 21011G16KT 24/04 A2998 RMK A01 T02430039  RH  027%=      5-min Rain = 0
KWOS 171905Z 21010KT 24/04 A2997 RMK A01 T02430037  RH  027%=      5-min Rain = 0
KWOS 171910Z 22010G16KT 25/04 A2997 RMK A01 T02470039  RH  026%=      5-min Rain = 0
KWOS 171915Z 22011G16KT 25/04 A2997 RMK A01 T02470038  RH  026%=      5-min Rain = 0
KWOS 171920Z 20009G14KT 25/04 A2996 RMK A01 T02520043  RH  026%=      5-min Rain = 0
KWOS 171925Z 20012G17KT 25/04 A2996 RMK A01 T02510042  RH  026%=      5-min Rain = 0
KWOS 171930Z 20011KT 25/04 A2996 RMK A01 T02500041  RH  026%=      5-min Rain = 0
KWOS 171935Z 21013KT 25/04 A2995 RMK A01 T02490041  RH  027%=      5-min Rain = 0
KWOS 171940Z 21010G16KT 25/04 A2995 RMK A01 T02520041  RH  026%=      5-min Rain = 0
KWOS 171945Z 21010G15KT 25/04 A2994 RMK A01 T02530039  RH  025%=      5-min Rain = 0
KWOS 171950Z 20011G17KT 25/04 A2994 RMK A01 T02540039  RH  025%=      5-min Rain = 0
KWOS 171955Z 22010G16KT 26/04 A2994 RMK A01 T02550038  RH  025%=      5-min Rain = 0
KWOS 172000Z 20010G16KT 26/04 A2993 RMK A01 T02600039  RH  024%=      5-min Rain = 0
KWOS 172005Z 21011G18KT 26/04 A2993 RMK A01 T02580035  RH  024%=      5-min Rain = 0
KWOS 172010Z 19009KT 26/04 A2993 RMK A01 T02590040  RH  025%=      5-min Rain = 0
KWOS 172015Z 20013KT 26/04 A2992 RMK A01 T02580037  RH  025%=      5-min Rain = 0
KWOS 172020Z 21012G18KT 26/04 A2992 RMK A01 T02560040  RH  025%=      5-min Rain = 0
KWOS 172025Z 20012KT 26/04 A2992 RMK A01 T02580040  RH  025%=      5-min Rain = 0
KWOS 172030Z 20014KT 26/04 A2992 RMK A01 T02570036  RH  024%=      5-min Rain = 0
KWOS 172035Z 20011G16KT 26/04 A2992 RMK A01 T02600039  RH  025%=      5-min Rain = 0
KWOS 172040Z 19010G16KT 26/04 A2991 RMK A01 T02600044  RH  025%=      5-min Rain = 0
KWOS 172045Z 20012G18KT 26/04 A2991 RMK A01 T02640044  RH  025%=      5-min Rain = 0
KWOS 172050Z 20010KT 26/04 A2991 RMK A01 T02600042  RH  025%=      5-min Rain = 0
KWOS 172055Z 21011G19KT 27/04 A2991 RMK A01 T02670044  RH  024%=      5-min Rain = 0
KWOS 172100Z 21012G18KT 27/04 A2991 RMK A01 T02650042  RH  024%=      5-min Rain = 0
KWOS 172105Z 19008G14KT 27/05 A2991 RMK A01 T02650046  RH  025%=      5-min Rain = 0
KWOS 172110Z 20012G17KT 27/05 A299 RMK A01 T02660046  RH  025%=      5-min Rain = 0
KWOS 172115Z 21009G15KT 26/04 A299 RMK A01 T02640037  RH  024%=      5-min Rain = 0
KWOS 172120Z 19012KT 27/04 A299 RMK A01 T02660038  RH  023%=      5-min Rain = 0
KWOS 172125Z 19012G19KT 27/04 A299 RMK A01 T02650038  RH  024%=      5-min Rain = 0
KWOS 172130Z 20013KT 27/04 A299 RMK A01 T02670039  RH  024%=      5-min Rain = 0
KWOS 172135Z 20011G16KT 27/04 A299 RMK A01 T02650039  RH  024%=      5-min Rain = 0
KWOS 172140Z 21012G18KT 27/04 A299 RMK A01 T02650037  RH  023%=      5-min Rain = 0
KWOS 172145Z 19013G18KT 26/04 A299 RMK A01 T02640035  RH  023%=      5-min Rain = 0
KWOS 172150Z 20010KT 26/04 A299 RMK A01 T02640039  RH  024%=      5-min Rain = 0
KWOS 172155Z 19013G18KT 27/04 A2989 RMK A01 T02670035  RH  023%=      5-min Rain = 0
KWOS 172200Z 18011KT 27/04 A2989 RMK A01 T02660041  RH  024%=      5-min Rain = 0
KWOS 172205Z 20012KT 27/04 A2989 RMK A01 T02680035  RH  023%=      5-min Rain = 0
KWOS 172210Z 21011KT 27/03 A2989 RMK A01 T02670033  RH  022%=      5-min Rain = 0
KWOS 172215Z 20013G19KT 26/04 A2989 RMK A01 T02640039  RH  024%=      5-min Rain = 0
KWOS 172220Z 20011KT 26/04 A2989 RMK A01 T02640037  RH  024%=      5-min Rain = 0
KWOS 172225Z 19013KT 26/04 A2989 RMK A01 T02630038  RH  024%=      5-min Rain = 0
KWOS 172230Z 19011G17KT 26/04 A2988 RMK A01 T02630037  RH  024%=      5-min Rain = 0
KWOS 172235Z 20013G18KT 26/03 A2988 RMK A01 T02630029  RH  022%=      5-min Rain = 0
KWOS 172240Z 19013KT 26/03 A2988 RMK A01 T02620032  RH  023%=      5-min Rain = 0
KWOS 172245Z 19012G18KT 26/03 A2988 RMK A01 T02620030  RH  023%=      5-min Rain = 0
KWOS 172250Z 19012G18KT 26/03 A2988 RMK A01 T02610028  RH  022%=      5-min Rain = 0
KWOS 172255Z 19012KT 26/03 A2988 RMK A01 T02600029  RH  023%=      5-min Rain = 0
KWOS 172300Z 19013KT 26/03 A2988 RMK A01 T02600031  RH  023%=      5-min Rain = 0
KWOS 172305Z 19013G18KT 26/03 A2988 RMK A01 T02590029  RH  023%=      5-min Rain = 0
KWOS 172310Z 19013G19KT 26/02 A2987 RMK A01 T02570024  RH  022%=      5-min Rain = 0
KWOS 172315Z 19012KT 26/02 A2988 RMK A01 T02560020  RH  022%=      5-min Rain = 0
KWOS 172320Z 20012G17KT 26/03 A2987 RMK A01 T02560025  RH  023%=      5-min Rain = 0
KWOS 172325Z 20011KT 25/03 A2987 RMK A01 T02540026  RH  023%=      5-min Rain = 0
KWOS 172330Z 18011KT 25/03 A2987 RMK A01 T02520029  RH  024%=      5-min Rain = 0
KWOS 172335Z 19011KT 25/03 A2987 RMK A01 T02500028  RH  024%=      5-min Rain = 0
KWOS 172340Z 19011KT 25/03 A2987 RMK A01 T02470027  RH  024%=      5-min Rain = 0
KWOS 172345Z 19008KT 24/03 A2987 RMK A01 T02430027  RH  025%=      5-min Rain = 0
KWOS 172350Z 19009KT 24/03 A2987 RMK A01 T02400027  RH  025%=      5-min Rain = 0
KWOS 172355Z 19008KT 24/03 A2987 RMK A01 T02380027  RH  026%=      5-min Rain = 0
KWOS 180000Z 18009KT 24/03 A2987 RMK A01 T02350028  RH  026%=      5-min Rain = 0
KWOS 180005Z 18008KT 23/03 A2986 RMK A01 T02320029  RH  027%=      5-min Rain = 0
KWOS 180010Z 18007KT 23/03 A2986 RMK A01 T02270030  RH  028%=      5-min Rain = 0
KWOS 180015Z 18007KT 22/03 A2986 RMK A01 T02230031  RH  029%=      5-min Rain = 0
KWOS 180020Z 18007KT 22/03 A2986 RMK A01 T02200032  RH  030%=      5-min Rain = 0
KWOS 180025Z 18007KT 22/03 A2986 RMK A01 T02170032  RH  030%=      5-min Rain = 0
KWOS 180030Z 17007KT 21/03 A2986 RMK A01 T02130033  RH  031%=      5-min Rain = 0
KWOS 180035Z 17007KT 21/03 A2986 RMK A01 T02090034  RH  032%=      5-min Rain = 0
KWOS 180040Z 17007KT 21/03 A2986 RMK A01 T02070034  RH  033%=      5-min Rain = 0
KWOS 180045Z 17007KT 20/03 A2986 RMK A01 T02040034  RH  033%=      5-min Rain = 0
KWOS 180050Z 17007KT 20/03 A2986 RMK A01 T02000034  RH  034%=      5-min Rain = 0
KWOS 180055Z 17007KT 20/03 A2986 RMK A01 T01960034  RH  035%=      5-min Rain = 0
KWOS 180100Z 17008KT 20/03 A2986 RMK A01 T01970034  RH  035%=      5-min Rain = 0
KWOS 180105Z 17008KT 20/04 A2986 RMK A01 T01950035  RH  035%=      5-min Rain = 0
KWOS 180110Z 17008KT 20/04 A2986 RMK A01 T01950036  RH  036%=      5-min Rain = 0
KWOS 180115Z 17008KT 20/04 A2986 RMK A01 T01960037  RH  035%=      5-min Rain = 0
KWOS 180120Z 16007KT 19/04 A2986 RMK A01 T01940037  RH  036%=      5-min Rain = 0
KWOS 180125Z 15008KT 19/04 A2986 RMK A01 T01880038  RH  038%=      5-min Rain = 0
KWOS 180130Z 15008KT 19/04 A2986 RMK A01 T01850039  RH  039%=      5-min Rain = 0
KWOS 180135Z 15007KT 19/04 A2986 RMK A01 T01860041  RH  039%=      5-min Rain = 0
KWOS 180140Z 15008KT 19/04 A2986 RMK A01 T01860043  RH  040%=      5-min Rain = 0
KWOS 180145Z 16008KT 19/05 A2986 RMK A01 T01880046  RH  040%=      5-min Rain = 0
KWOS 180150Z 16007KT 19/05 A2986 RMK A01 T01900047  RH  040%=      5-min Rain = 0
KWOS 180155Z 17008KT 19/05 A2986 RMK A01 T01890048  RH  040%=      5-min Rain = 0
KWOS 180200Z 17007KT 19/05 A2987 RMK A01 T01850048  RH  041%=      5-min Rain = 0
KWOS 180205Z 16008KT 18/05 A2987 RMK A01 T01840048  RH  042%=      5-min Rain = 0
KWOS 180210Z 16008KT 18/05 A2987 RMK A01 T01840048  RH  042%=      5-min Rain = 0
KWOS 180215Z 17007KT 18/05 A2987 RMK A01 T01820048  RH  042%=      5-min Rain = 0
KWOS 180220Z 16007KT 18/05 A2987 RMK A01 T01770048  RH  043%=      5-min Rain = 0
KWOS 180225Z 17007KT 17/05 A2987 RMK A01 T01740048  RH  044%=      5-min Rain = 0
KWOS 180230Z 17007KT 17/05 A2987 RMK A01 T01720048  RH  045%=      5-min Rain = 0
KWOS 180235Z 17007KT 17/05 A2987 RMK A01 T01700047  RH  045%=      5-min Rain = 0
KWOS 180240Z 17008KT 17/05 A2987 RMK A01 T01690047  RH  045%=      5-min Rain = 0
KWOS 180245Z 17008KT 17/05 A2987 RMK A01 T01690046  RH  045%=      5-min Rain = 0
KWOS 180250Z 17007KT 17/05 A2987 RMK A01 T01670046  RH  046%=      5-min Rain = 0
KWOS 180255Z 17007KT 16/05 A2987 RMK A01 T01640046  RH  046%=      5-min Rain = 0
KWOS 180300Z 18007KT 16/05 A2987 RMK A01 T01610046  RH  047%=      5-min Rain = 0
KWOS 180305Z 18007KT 16/05 A2987 RMK A01 T01590046  RH  048%=      5-min Rain = 0
KWOS 180310Z 17007KT 16/05 A2987 RMK A01 T01580046  RH  048%=      5-min Rain = 0
KWOS 180315Z 17008KT 16/05 A2987 RMK A01 T01590047  RH  048%=      5-min Rain = 0
KWOS 180320Z 17008KT 16/05 A2987 RMK A01 T01590048  RH  049%=      5-min Rain = 0
KWOS 180325Z 17008KT 16/05 A2987 RMK A01 T01600050  RH  049%=      5-min Rain = 0
KWOS 180330Z 17008KT 16/05 A2988 RMK A01 T01620051  RH  049%=      5-min Rain = 0
KWOS 180335Z 17008KT 16/05 A2988 RMK A01 T01640052  RH  049%=      5-min Rain = 0
KWOS 180340Z 17009KT 17/05 A2988 RMK A01 T01660054  RH  048%=      5-min Rain = 0
KWOS 180345Z 15010KT 17/05 A2988 RMK A01 T01670054  RH  048%=      5-min Rain = 0
KWOS 180350Z 16009KT 17/06 A2988 RMK A01 T01700056  RH  048%=      5-min Rain = 0
KWOS 180355Z 16009KT 17/06 A2988 RMK A01 T01670056  RH  049%=      5-min Rain = 0
KWOS 180400Z 16009KT 17/06 A2988 RMK A01 T01650058  RH  050%=      5-min Rain = 0
KWOS 180405Z 16010KT 17/06 A2988 RMK A01 T01650060  RH  051%=      5-min Rain = 0
KWOS 180410Z 16010G15KT 16/06 A2988 RMK A01 T01640063  RH  052%=      5-min Rain = 0
KWOS 180415Z 16010KT 16/07 A2988 RMK A01 T01640066  RH  053%=      5-min Rain = 0
KWOS 180420Z 16009G14KT 16/07 A2988 RMK A01 T01640068  RH  054%=      5-min Rain = 0
KWOS 180425Z 16010KT 16/07 A2987 RMK A01 T01640070  RH  055%=      5-min Rain = 0
KWOS 180430Z 16010KT 17/07 A2987 RMK A01 T01650072  RH  055%=      5-min Rain = 0
KWOS 180435Z 16010G16KT 17/07 A2987 RMK A01 T01650073  RH  056%=      5-min Rain = 0
KWOS 180440Z 16010G15KT 17/07 A2987 RMK A01 T01650073  RH  056%=      5-min Rain = 0
KWOS 180445Z 17010KT 16/07 A2987 RMK A01 T01640074  RH  057%=      5-min Rain = 0
KWOS 180450Z 16010G15KT 16/08 A2987 RMK A01 T01640075  RH  057%=      5-min Rain = 0
KWOS 180455Z 16011KT 17/08 A2987 RMK A01 T01650075  RH  057%=      5-min Rain = 0

Page generated in 0.0205 seconds.